Terminal Aerodrome Forecast
Issued by NWS Charleston, WV

Current Version | Previous Version | Text Only | Print | Product List | Glossary Off
Versions: 1 2 3 4 5 6 7 8 9 10 11 12 13 14 15 16 17 18 19 20 21 22 23 24 25 26

581
FTUS41 KRLX 231137
TAFPKB
TAF
KPKB 231137Z 2312/2412 00000KT P6SM FEW080
     FM231800 VRB03KT P6SM SCT045
     FM240600 00000KT 6SM BR SCT250
     FM240700 00000KT 2SM BR SCT250=

USA.gov is the U.S. government's official web portal to all federal, state and local government web resources and services.